Time;durP1;ratioP1;P1;durP2;ratioP2;P2;SDS_P1;SDS_P2;PMS_P1;PMS_P2;Temp;Humidity;BMP_temperature;BMP_pressure;BME280_temperature;BME280_humidity;BME280_pressure;Samples;Min_cycle;Max_cycle;Signal;HPM_P1;HPM_P2
2022/03/14 00:00:39;;;;;;;10.70;2.42;;;;;;;;;;5015395;28;20378;-63
2022/03/14 00:03:05;;;;;;;17.30;3.20;;;;;;;;;;5014979;28;20474;-63
2022/03/14 00:05:32;;;;;;;13.90;3.97;;;;;;;;;;5015105;28;20551;-63
2022/03/14 00:08:01;;;;;;;14.32;2.53;;;;;;;;;;5014981;28;20080;-63
2022/03/14 00:10:28;;;;;;;13.77;3.10;;;;;;;;;;5014888;28;20034;-63
2022/03/14 00:12:56;;;;;;;12.82;2.92;;;;;;;;;;5015091;28;20041;-63
2022/03/14 00:15:23;;;;;;;8.60;2.47;;;;;;;;;;5014893;28;20049;-63
2022/03/14 00:17:50;;;;;;;13.45;3.78;;;;;;;;;;5014451;28;20596;-63
2022/03/14 00:20:16;;;;;;;9.85;2.72;;;;;;;;;;5015079;28;20072;-63
2022/03/14 00:22:45;;;;;;;12.35;2.90;;;;;;;;;;5014501;28;20030;-63
2022/03/14 00:25:12;;;;;;;8.13;2.40;;;;;;;;;;5014793;28;20112;-63
2022/03/14 00:27:38;;;;;;;12.77;2.97;;;;;;;;;;5014695;28;20034;-63
2022/03/14 00:30:06;;;;;;;9.77;2.97;;;;;;;;;;5014678;28;20060;-63
2022/03/14 00:32:34;;;;;;;15.88;4.22;;;;;;;;;;5014188;28;20033;-63
2022/03/14 00:35:00;;;;;;;8.10;2.65;;;;;;;;;;5014762;28;20030;-63
2022/03/14 00:37:26;;;;;;;17.17;2.75;;;;;;;;;;5014749;28;20393;-63
2022/03/14 00:39:53;;;;;;;6.13;3.10;;;;;;;;;;5014445;28;20058;-63
2022/03/14 00:42:22;;;;;;;13.57;3.30;;;;;;;;;;5014510;28;20030;-63
2022/03/14 00:44:49;;;;;;;16.33;3.33;;;;;;;;;;5014205;28;20554;-63
2022/03/14 00:47:17;;;;;;;19.20;3.35;;;;;;;;;;5014172;28;20473;-63
2022/03/14 00:49:44;;;;;;;14.38;2.60;;;;;;;;;;5014292;28;20172;-63
2022/03/14 00:52:11;;;;;;;16.85;2.92;;;;;;;;;;5014116;28;20385;-63
2022/03/14 00:54:37;;;;;;;13.07;3.15;;;;;;;;;;5014284;28;20415;-63
2022/03/14 00:57:03;;;;;;;9.40;3.10;;;;;;;;;;5014218;28;20401;-63
2022/03/14 00:59:30;;;;;;;11.45;3.75;;;;;;;;;;5014036;28;20117;-63
2022/03/14 01:01:56;;;;;;;8.25;3.15;;;;;;;;;;5012892;28;20037;-63
2022/03/14 01:04:22;;;;;;;17.60;3.45;;;;;;;;;;5014151;28;20112;-63
2022/03/14 01:06:48;;;;;;;14.13;3.00;;;;;;;;;;5013926;28;20486;-63
2022/03/14 01:09:15;;;;;;;11.32;3.10;;;;;;;;;;5013987;28;20018;-63
2022/03/14 01:11:44;;;;;;;9.25;2.90;;;;;;;;;;5013625;28;20037;-63
2022/03/14 01:14:11;;;;;;;11.57;3.28;;;;;;;;;;5013679;28;20473;-63
2022/03/14 01:16:37;;;;;;;13.55;3.67;;;;;;;;;;5013533;28;20022;-63
2022/03/14 01:19:05;;;;;;;10.00;2.17;;;;;;;;;;4996193;28;20375;-63
2022/03/14 01:21:31;;;;;;;10.23;2.42;;;;;;;;;;5013680;28;20462;-63
2022/03/14 01:23:58;;;;;;;16.08;3.35;;;;;;;;;;5013441;28;20037;-63
2022/03/14 01:26:24;;;;;;;12.63;3.17;;;;;;;;;;5013870;28;20374;-63
2022/03/14 01:28:50;;;;;;;15.60;3.85;;;;;;;;;;5013486;28;20034;-63
2022/03/14 01:31:18;;;;;;;12.35;3.15;;;;;;;;;;5013496;28;20421;-63
2022/03/14 01:33:45;;;;;;;9.68;2.80;;;;;;;;;;5013349;28;20053;-63
2022/03/14 01:36:11;;;;;;;9.88;3.10;;;;;;;;;;5013584;28;20034;-63
2022/03/14 01:38:37;;;;;;;15.25;3.28;;;;;;;;;;5013471;28;20022;-63
2022/03/14 01:41:03;;;;;;;9.13;3.03;;;;;;;;;;5013470;28;20450;-63
2022/03/14 01:43:29;;;;;;;12.52;3.42;;;;;;;;;;5013418;28;20034;-63
2022/03/14 01:45:56;;;;;;;16.08;3.80;;;;;;;;;;5012931;28;20389;-63
2022/03/14 01:48:24;;;;;;;19.63;3.83;;;;;;;;;;5013434;28;20034;-63
2022/03/14 01:50:50;;;;;;;16.50;3.40;;;;;;;;;;5017443;28;20393;-63
2022/03/14 01:53:17;;;;;;;9.30;3.20;;;;;;;;;;5033226;28;20426;-63
2022/03/14 01:55:43;;;;;;;12.88;3.13;;;;;;;;;;5032689;28;20033;-63
2022/03/14 01:58:10;;;;;;;12.38;3.65;;;;;;;;;;5032938;28;20083;-63
2022/03/14 02:00:36;;;;;;;13.63;4.15;;;;;;;;;;5032587;28;20021;-63
2022/03/14 02:03:02;;;;;;;13.63;3.92;;;;;;;;;;5033119;28;20112;-63
2022/03/14 02:05:28;;;;;;;13.30;3.85;;;;;;;;;;5033027;28;20400;-63
2022/03/14 02:07:58;;;;;;;9.88;3.85;;;;;;;;;;5032493;28;20030;-63
2022/03/14 02:10:24;;;;;;;13.35;3.22;;;;;;;;;;5032837;28;20041;-63
2022/03/14 02:12:50;;;;;;;15.65;3.88;;;;;;;;;;5032387;28;20034;-63
2022/03/14 02:15:16;;;;;;;14.40;3.97;;;;;;;;;;5032538;28;20037;-63
2022/03/14 02:17:45;;;;;;;12.60;4.05;;;;;;;;;;5032624;28;20033;-63
2022/03/14 02:20:11;;;;;;;12.20;3.70;;;;;;;;;;5032872;28;20492;-63
2022/03/14 02:22:37;;;;;;;11.77;3.70;;;;;;;;;;5014693;28;20384;-63
2022/03/14 02:25:08;;;;;;;10.32;3.35;;;;;;;;;;5032606;28;20462;-63
2022/03/14 02:27:34;;;;;;;10.13;4.43;;;;;;;;;;5032847;28;20373;-63
2022/03/14 02:30:02;;;;;;;11.10;3.42;;;;;;;;;;5032119;28;20036;-63
2022/03/14 02:32:28;;;;;;;9.27;3.35;;;;;;;;;;5032680;28;20418;-63
2022/03/14 02:34:55;;;;;;;11.73;3.38;;;;;;;;;;5032313;28;20032;-63
2022/03/14 02:37:22;;;;;;;8.82;3.47;;;;;;;;;;5032606;28;20025;-63
2022/03/14 02:39:48;;;;;;;12.95;3.22;;;;;;;;;;5032433;28;20389;-62
2022/03/14 02:42:14;;;;;;;15.70;3.83;;;;;;;;;;5032698;28;20540;-62
2022/03/14 02:44:43;;;;;;;10.40;3.28;;;;;;;;;;5032022;28;20464;-62
2022/03/14 02:47:09;;;;;;;13.70;3.65;;;;;;;;;;5032490;28;20044;-63
2022/03/14 02:49:36;;;;;;;10.85;3.20;;;;;;;;;;5032499;28;20465;-62
2022/03/14 02:52:03;;;;;;;9.02;3.80;;;;;;;;;;5032111;28;20436;-63
2022/03/14 02:54:29;;;;;;;16.00;3.80;;;;;;;;;;5032535;28;20034;-62
2022/03/14 02:56:57;;;;;;;7.40;3.80;;;;;;;;;;5031967;28;20029;-62
2022/03/14 02:59:23;;;;;;;9.13;3.65;;;;;;;;;;5032432;28;20461;-63
2022/03/14 03:01:49;;;;;;;13.32;4.28;;;;;;;;;;5032313;28;20037;-63
2022/03/14 03:04:15;;;;;;;12.15;3.33;;;;;;;;;;5032362;28;20021;-62
2022/03/14 03:06:42;;;;;;;8.38;3.33;;;;;;;;;;5032144;28;20029;-62
2022/03/14 03:09:08;;;;;;;7.30;3.47;;;;;;;;;;5032330;28;20049;-63
2022/03/14 03:11:35;;;;;;;13.10;3.65;;;;;;;;;;5031937;28;20057;-63
2022/03/14 03:14:01;;;;;;;10.68;3.30;;;;;;;;;;5032164;28;20488;-63
2022/03/14 03:16:27;;;;;;;11.68;3.08;;;;;;;;;;5032334;28;20061;-63
2022/03/14 03:18:54;;;;;;;9.18;3.03;;;;;;;;;;5032133;28;20108;-63
2022/03/14 03:21:21;;;;;;;7.50;2.83;;;;;;;;;;5032271;28;20381;-63
2022/03/14 03:23:47;;;;;;;11.70;3.20;;;;;;;;;;5031738;28;20045;-63
2022/03/14 03:26:15;;;;;;;6.15;2.70;;;;;;;;;;5035503;28;20109;-63
2022/03/14 03:28:42;;;;;;;9.02;2.42;;;;;;;;;;5035710;28;20160;-63
2022/03/14 03:31:10;;;;;;;13.13;3.20;;;;;;;;;;5035578;28;20041;-63
2022/03/14 03:33:37;;;;;;;10.88;2.75;;;;;;;;;;5033771;28;20412;-63
2022/03/14 03:36:05;;;;;;;10.93;2.50;;;;;;;;;;5024095;28;20045;-63
2022/03/14 03:38:31;;;;;;;5.82;2.53;;;;;;;;;;5017126;28;20022;-63
2022/03/14 03:40:57;;;;;;;10.98;3.20;;;;;;;;;;5032074;28;20035;-63
2022/03/14 03:43:23;;;;;;;16.33;3.53;;;;;;;;;;5034035;28;20029;-63
2022/03/14 03:45:50;;;;;;;13.55;2.63;;;;;;;;;;5027325;28;20029;-63
2022/03/14 03:48:16;;;;;;;5.72;2.53;;;;;;;;;;5027105;28;20108;-63
2022/03/14 03:50:42;;;;;;;8.23;2.45;;;;;;;;;;5028497;28;20136;-63
2022/03/14 03:53:08;;;;;;;8.95;2.17;;;;;;;;;;5019586;28;20022;-63
2022/03/14 03:55:34;;;;;;;4.50;2.30;;;;;;;;;;5033475;28;20025;-63
2022/03/14 03:58:01;;;;;;;7.43;2.53;;;;;;;;;;5033630;28;20417;-62
2022/03/14 04:00:27;;;;;;;13.18;2.95;;;;;;;;;;5023668;28;20041;-63
2022/03/14 04:02:53;;;;;;;8.70;3.28;;;;;;;;;;5015404;28;20531;-63
2022/03/14 04:05:21;;;;;;;8.15;1.85;;;;;;;;;;5014860;28;20033;-63
2022/03/14 04:07:48;;;;;;;7.72;2.78;;;;;;;;;;5015738;28;20041;-63
2022/03/14 04:10:15;;;;;;;4.70;2.00;;;;;;;;;;5026857;28;20398;-63
2022/03/14 04:12:44;;;;;;;4.55;1.77;;;;;;;;;;5033160;28;20021;-63
2022/03/14 04:15:11;;;;;;;5.47;1.67;;;;;;;;;;5020268;28;20113;-63
2022/03/14 04:17:38;;;;;;;6.72;1.83;;;;;;;;;;5018306;28;20022;-63
2022/03/14 04:20:05;;;;;;;5.80;1.75;;;;;;;;;;5024306;28;20079;-63
2022/03/14 04:22:32;;;;;;;4.25;2.15;;;;;;;;;;5028557;28;20489;-63
2022/03/14 04:25:01;;;;;;;5.10;1.42;;;;;;;;;;5033084;28;20118;-63
2022/03/14 04:27:28;;;;;;;4.13;1.70;;;;;;;;;;5034700;28;20607;-63
2022/03/14 04:29:56;;;;;;;9.63;1.90;;;;;;;;;;5034460;28;20116;-63
2022/03/14 04:32:26;;;;;;;5.57;1.70;;;;;;;;;;5034499;28;20025;-63
2022/03/14 04:34:53;;;;;;;7.13;1.92;;;;;;;;;;5034270;28;20028;-63
2022/03/14 04:37:19;;;;;;;5.15;1.70;;;;;;;;;;5034549;28;20519;-63
2022/03/14 04:39:46;;;;;;;4.20;1.70;;;;;;;;;;5033954;28;20024;-63
2022/03/14 04:42:17;;;;;;;5.38;1.83;;;;;;;;;;5034327;28;20052;-63
2022/03/14 04:44:45;;;;;;;2.58;1.30;;;;;;;;;;5034407;28;20033;-63
2022/03/14 04:47:11;;;;;;;7.40;1.85;;;;;;;;;;5033477;28;20091;-63
2022/03/14 04:49:37;;;;;;;5.15;1.65;;;;;;;;;;5034281;28;20441;-63
2022/03/14 04:52:04;;;;;;;4.00;1.65;;;;;;;;;;5033674;28;20032;-63
2022/03/14 04:54:30;;;;;;;6.13;1.52;;;;;;;;;;5033862;28;20036;-63
2022/03/14 04:56:57;;;;;;;5.03;1.40;;;;;;;;;;5016208;28;20354;-63
2022/03/14 04:59:23;;;;;;;7.07;1.50;;;;;;;;;;5034054;28;20057;-63
2022/03/14 05:01:49;;;;;;;3.13;1.30;;;;;;;;;;5033825;28;20567;-63
2022/03/14 05:04:16;;;;;;;3.58;1.10;;;;;;;;;;5033890;28;20017;-63
2022/03/14 05:06:42;;;;;;;5.00;1.35;;;;;;;;;;5033998;28;20030;-63
2022/03/14 05:09:08;;;;;;;2.63;1.15;;;;;;;;;;5033390;28;20200;-63
2022/03/14 05:11:34;;;;;;;3.17;0.90;;;;;;;;;;5033607;28;20018;-63
2022/03/14 05:14:01;;;;;;;3.83;1.73;;;;;;;;;;5033525;28;20439;-63
2022/03/14 05:16:27;;;;;;;5.78;1.40;;;;;;;;;;5033650;28;20053;-63
2022/03/14 05:18:53;;;;;;;5.28;1.23;;;;;;;;;;5033519;28;20026;-63
2022/03/14 05:21:20;;;;;;;3.35;1.13;;;;;;;;;;5033670;28;20030;-63
2022/03/14 05:23:46;;;;;;;4.00;1.00;;;;;;;;;;5032927;28;20147;-63
2022/03/14 05:26:12;;;;;;;2.97;1.40;;;;;;;;;;5033444;28;20045;-63
2022/03/14 05:28:38;;;;;;;3.10;1.40;;;;;;;;;;5033586;28;20095;-63
2022/03/14 05:31:04;;;;;;;3.70;1.60;;;;;;;;;;5033175;28;20112;-63
2022/03/14 05:33:30;;;;;;;3.50;1.30;;;;;;;;;;5033162;28;20117;-63
2022/03/14 05:35:57;;;;;;;5.55;1.58;;;;;;;;;;5033122;28;20037;-63
2022/03/14 05:38:24;;;;;;;5.05;1.30;;;;;;;;;;5032870;28;20065;-63
2022/03/14 05:40:51;;;;;;;4.22;1.33;;;;;;;;;;5033035;28;20017;-63
2022/03/14 05:43:17;;;;;;;3.00;1.40;;;;;;;;;;5031688;28;20025;-63
2022/03/14 05:45:43;;;;;;;3.28;2.28;;;;;;;;;;5013068;28;20035;-63
2022/03/14 05:48:10;;;;;;;3.42;1.50;;;;;;;;;;5029573;28;20061;-63
2022/03/14 05:50:36;;;;;;;5.93;1.98;;;;;;;;;;5032535;28;20040;-63
2022/03/14 05:53:02;;;;;;;9.70;2.08;;;;;;;;;;5032528;28;20034;-62
2022/03/14 05:55:28;;;;;;;4.65;1.73;;;;;;;;;;5017187;28;20112;-63
2022/03/14 05:57:54;;;;;;;4.72;1.33;;;;;;;;;;5022542;28;20488;-63
2022/03/14 06:00:24;;;;;;;4.05;1.75;;;;;;;;;;5032607;28;20037;-63
2022/03/14 06:02:52;;;;;;;5.95;2.03;;;;;;;;;;5032817;28;20029;-63
2022/03/14 06:05:20;;;;;;;3.08;1.92;;;;;;;;;;5013030;28;20351;-63
2022/03/14 06:07:46;;;;;;;4.65;2.13;;;;;;;;;;5013183;28;20030;-63
2022/03/14 06:10:13;;;;;;;4.65;2.03;;;;;;;;;;5013006;28;20030;-63
2022/03/14 06:12:40;;;;;;;2.67;1.75;;;;;;;;;;5012886;28;20492;-63
2022/03/14 06:15:09;;;;;;;4.82;1.77;;;;;;;;;;5012792;28;20022;-63
2022/03/14 06:17:35;;;;;;;7.57;2.20;;;;;;;;;;5032411;28;20025;-63
2022/03/14 06:20:01;;;;;;;4.28;1.63;;;;;;;;;;5032355;28;20442;-63
2022/03/14 06:22:28;;;;;;;3.90;2.10;;;;;;;;;;5032264;28;20141;-63
2022/03/14 06:24:54;;;;;;;2.67;1.55;;;;;;;;;;5032358;28;20091;-63
2022/03/14 06:27:21;;;;;;;6.28;1.52;;;;;;;;;;5032105;28;20037;-63
2022/03/14 06:29:48;;;;;;;2.38;1.40;;;;;;;;;;5029281;28;20037;-63
2022/03/14 06:32:15;;;;;;;5.35;1.20;;;;;;;;;;5027238;28;20084;-63
2022/03/14 06:34:42;;;;;;;3.15;1.60;;;;;;;;;;5020337;28;20018;-63
2022/03/14 06:37:08;;;;;;;4.15;1.35;;;;;;;;;;5029718;28;20025;-63
2022/03/14 06:39:35;;;;;;;3.55;1.25;;;;;;;;;;5030834;28;20044;-63
2022/03/14 06:42:02;;;;;;;3.45;1.23;;;;;;;;;;5023496;28;20038;-63
2022/03/14 06:44:29;;;;;;;2.30;1.20;;;;;;;;;;5031787;28;20029;-63
2022/03/14 06:46:55;;;;;;;2.83;1.23;;;;;;;;;;5031220;28;20041;-63
2022/03/14 06:49:21;;;;;;;6.28;1.33;;;;;;;;;;5022435;28;20041;-63
2022/03/14 06:51:49;;;;;;;1.98;1.30;;;;;;;;;;5028124;28;20026;-63
2022/03/14 06:54:15;;;;;;;1.38;1.20;;;;;;;;;;5028709;28;20033;-63
2022/03/14 06:56:42;;;;;;;6.50;3.17;;;;;;;;;;5029674;28;20035;-63
2022/03/14 06:59:09;;;;;;;10.50;4.47;;;;;;;;;;5029902;28;20040;-63
2022/03/14 07:01:35;;;;;;;11.63;5.05;;;;;;;;;;5033818;28;20420;-63
2022/03/14 07:04:02;;;;;;;11.98;4.30;;;;;;;;;;5032020;28;20025;-63
2022/03/14 07:06:28;;;;;;;9.95;4.00;;;;;;;;;;5033003;28;20030;-63
2022/03/14 07:08:55;;;;;;;6.10;3.58;;;;;;;;;;5033504;28;20037;-63
2022/03/14 07:11:21;;;;;;;5.32;3.33;;;;;;;;;;5034494;28;20038;-70
2022/03/14 07:13:47;;;;;;;6.07;3.38;;;;;;;;;;5034697;28;20397;-64
2022/03/14 07:16:13;;;;;;;9.57;3.58;;;;;;;;;;5033503;28;20121;-63
2022/03/14 07:18:39;;;;;;;3.45;1.88;;;;;;;;;;5031970;28;20111;-63
2022/03/14 07:21:06;;;;;;;5.03;2.00;;;;;;;;;;5034063;28;20049;-63
2022/03/14 07:23:34;;;;;;;4.82;2.30;;;;;;;;;;5034524;28;20053;-63
2022/03/14 07:26:00;;;;;;;3.50;2.20;;;;;;;;;;5035010;28;20034;-64
2022/03/14 07:28:26;;;;;;;6.20;2.67;;;;;;;;;;5034918;28;20037;-64
2022/03/14 07:30:52;;;;;;;3.55;2.15;;;;;;;;;;5033770;28;20075;-64
2022/03/14 07:33:19;;;;;;;4.32;2.03;;;;;;;;;;5034257;28;20508;-63
2022/03/14 07:35:45;;;;;;;5.75;1.70;;;;;;;;;;5034794;28;20508;-64
2022/03/14 07:38:11;;;;;;;5.15;2.53;;;;;;;;;;5034884;28;20018;-64
2022/03/14 07:40:38;;;;;;;9.18;2.33;;;;;;;;;;5034653;28;20028;-64
2022/03/14 07:43:04;;;;;;;5.22;2.30;;;;;;;;;;5034909;28;20029;-64
2022/03/14 07:45:33;;;;;;;8.02;2.60;;;;;;;;;;5034024;28;20026;-63
2022/03/14 07:47:59;;;;;;;8.50;3.55;;;;;;;;;;5034411;28;20041;-64
2022/03/14 07:50:26;;;;;;;2.78;1.85;;;;;;;;;;5034385;28;20031;-64
2022/03/14 07:52:53;;;;;;;5.57;2.15;;;;;;;;;;5034229;28;20420;-64
2022/03/14 07:55:19;;;;;;;8.88;3.20;;;;;;;;;;5016327;28;20424;-64
2022/03/14 07:57:46;;;;;;;5.53;1.90;;;;;;;;;;5034228;28;20046;-64
2022/03/14 08:00:13;;;;;;;5.10;2.00;;;;;;;;;;5034326;28;20535;-64
2022/03/14 08:02:42;;;;;;;7.20;2.25;;;;;;;;;;5034027;28;20057;-64
2022/03/14 08:05:09;;;;;;;9.20;2.33;;;;;;;;;;5034431;28;20048;-64
2022/03/14 08:07:37;;;;;;;8.38;2.20;;;;;;;;;;5033975;28;20038;-64
2022/03/14 08:10:06;;;;;;;8.80;2.30;;;;;;;;;;5033856;28;20021;-64
2022/03/14 08:12:33;;;;;;;7.95;2.20;;;;;;;;;;5033680;28;20469;-64
2022/03/14 08:15:08;;;;;;;11.80;2.72;;;;;;;;;;5034315;28;20426;-64
2022/03/14 08:17:35;;;;;;;11.82;2.92;;;;;;;;;;5033636;28;20486;-64
2022/03/14 08:20:01;;;;;;;11.73;2.53;;;;;;;;;;5033876;28;20034;-64
2022/03/14 08:22:27;;;;;;;11.93;2.47;;;;;;;;;;5034073;28;20055;-64
2022/03/14 08:24:53;;;;;;;11.82;2.78;;;;;;;;;;5033138;28;20085;-64
2022/03/14 08:27:19;;;;;;;10.27;2.22;;;;;;;;;;5033719;28;20037;-64
2022/03/14 08:29:47;;;;;;;5.45;2.03;;;;;;;;;;5033870;28;20082;-64
2022/03/14 08:32:13;;;;;;;12.63;2.15;;;;;;;;;;5033294;28;20408;-64
2022/03/14 08:34:40;;;;;;;6.70;1.92;;;;;;;;;;5033587;28;20120;-64
2022/03/14 08:37:06;;;;;;;5.82;2.10;;;;;;;;;;5033971;28;20076;-64
2022/03/14 08:39:33;;;;;;;5.43;1.75;;;;;;;;;;5033305;28;20038;-64
2022/03/14 08:41:59;;;;;;;17.70;2.90;;;;;;;;;;5030026;28;20035;-64
2022/03/14 08:44:25;;;;;;;9.85;1.80;;;;;;;;;;5033474;28;20047;-64
2022/03/14 08:46:51;;;;;;;7.63;2.10;;;;;;;;;;5015579;28;20456;-64
2022/03/14 08:49:17;;;;;;;6.45;2.15;;;;;;;;;;5033319;28;20105;-64
2022/03/14 08:51:44;;;;;;;7.07;2.08;;;;;;;;;;5033347;28;20025;-64
2022/03/14 08:54:10;;;;;;;13.50;2.83;;;;;;;;;;5033396;28;20413;-64
2022/03/14 08:56:37;;;;;;;12.60;2.60;;;;;;;;;;5032339;28;20040;-64
2022/03/14 08:59:04;;;;;;;13.00;2.60;;;;;;;;;;5033315;28;20048;-64
2022/03/14 09:01:32;;;;;;;6.85;2.28;;;;;;;;;;5032634;28;20527;-64
2022/03/14 09:03:59;;;;;;;12.35;2.00;;;;;;;;;;5033127;28;20041;-64
2022/03/14 09:06:25;;;;;;;10.75;2.47;;;;;;;;;;5033057;28;20037;-63
2022/03/14 09:08:51;;;;;;;12.95;2.60;;;;;;;;;;5033215;28;20489;-64
2022/03/14 09:11:18;;;;;;;9.32;2.40;;;;;;;;;;5032667;28;20033;-64
2022/03/14 09:13:44;;;;;;;16.38;2.92;;;;;;;;;;5032842;28;20025;-64
2022/03/14 09:16:11;;;;;;;12.40;2.63;;;;;;;;;;5032632;28;20030;-64
2022/03/14 09:18:38;;;;;;;10.98;2.70;;;;;;;;;;5032819;28;20029;-64
2022/03/14 09:21:04;;;;;;;9.70;2.20;;;;;;;;;;5032710;28;20049;-64
2022/03/14 09:23:30;;;;;;;10.88;2.17;;;;;;;;;;5031678;28;20436;-64
2022/03/14 09:25:57;;;;;;;13.32;2.45;;;;;;;;;;5032666;28;20033;-64
2022/03/14 09:28:23;;;;;;;9.65;2.30;;;;;;;;;;5032176;28;20025;-63
2022/03/14 09:30:49;;;;;;;10.23;2.83;;;;;;;;;;5032736;28;20040;-64
2022/03/14 09:33:15;;;;;;;11.40;2.53;;;;;;;;;;5032698;28;20033;-63
2022/03/14 09:35:42;;;;;;;7.40;1.98;;;;;;;;;;5032287;28;20037;-64
2022/03/14 09:38:08;;;;;;;22.55;5.20;;;;;;;;;;5031489;28;20018;-63
2022/03/14 09:40:35;;;;;;;7.00;2.47;;;;;;;;;;5031699;28;20416;-63
2022/03/14 09:43:03;;;;;;;11.35;1.73;;;;;;;;;;5031869;28;20469;-63
2022/03/14 09:45:30;;;;;;;10.52;2.40;;;;;;;;;;5031645;28;20068;-63
2022/03/14 09:47:58;;;;;;;10.20;2.05;;;;;;;;;;5032296;28;20025;-63
2022/03/14 09:50:27;;;;;;;6.78;1.80;;;;;;;;;;5032003;28;20120;-63
2022/03/14 09:52:54;;;;;;;9.55;1.90;;;;;;;;;;5032003;28;20033;-64
2022/03/14 09:55:20;;;;;;;10.68;3.40;;;;;;;;;;5032187;28;20042;-63
2022/03/14 09:57:48;;;;;;;7.22;2.00;;;;;;;;;;5031055;28;20025;-63
2022/03/14 10:00:14;;;;;;;3.25;1.55;;;;;;;;;;5032303;28;20453;-63
2022/03/14 10:02:40;;;;;;;11.43;2.50;;;;;;;;;;5032181;28;20084;-63
2022/03/14 10:05:10;;;;;;;11.80;2.42;;;;;;;;;;5032423;28;20025;-63
2022/03/14 10:07:37;;;;;;;8.35;2.40;;;;;;;;;;5029157;28;20095;-63
2022/03/14 10:10:04;;;;;;;6.32;2.65;;;;;;;;;;5030181;28;20112;-63
2022/03/14 10:12:32;;;;;;;11.40;2.00;;;;;;;;;;5030158;28;20029;-63
2022/03/14 10:14:58;;;;;;;12.30;2.33;;;;;;;;;;5030707;28;20027;-63
2022/03/14 10:17:26;;;;;;;11.05;2.40;;;;;;;;;;5030525;28;20470;-63
2022/03/14 10:19:57;;;;;;;7.05;2.00;;;;;;;;;;5030397;28;20070;-63
2022/03/14 10:22:24;;;;;;;13.20;2.75;;;;;;;;;;5030806;28;20036;-63
2022/03/14 10:25:02;;;;;;;6.22;2.15;;;;;;;;;;5028939;28;20614;-63
2022/03/14 10:27:28;;;;;;;10.32;2.13;;;;;;;;;;5030181;28;20347;-63
2022/03/14 10:29:54;;;;;;;12.75;2.25;;;;;;;;;;5030734;28;20030;-63
2022/03/14 10:32:40;;;;;;;7.28;2.10;;;;;;;;;;5030216;28;20516;-63
2022/03/14 10:35:07;;;;;;;9.70;2.35;;;;;;;;;;5029594;28;20036;-63
2022/03/14 10:37:34;;;;;;;11.32;2.22;;;;;;;;;;5033715;28;20021;-63
2022/03/14 10:40:02;;;;;;;10.80;2.83;;;;;;;;;;5033789;28;20022;-63
2022/03/14 10:42:28;;;;;;;8.07;2.25;;;;;;;;;;5033695;28;20033;-63
2022/03/14 10:44:55;;;;;;;11.63;2.33;;;;;;;;;;5034012;28;20492;-63
2022/03/14 10:47:24;;;;;;;13.32;2.00;;;;;;;;;;5034194;28;20048;-63
2022/03/14 10:49:50;;;;;;;9.63;2.00;;;;;;;;;;5032908;28;20461;-63
2022/03/14 10:52:18;;;;;;;6.57;1.90;;;;;;;;;;5034177;28;20025;-63
2022/03/14 10:54:44;;;;;;;9.93;2.30;;;;;;;;;;5033427;28;20495;-63
2022/03/14 10:57:12;;;;;;;7.35;2.25;;;;;;;;;;5034302;28;20017;-63
2022/03/14 10:59:40;;;;;;;7.15;2.03;;;;;;;;;;5034037;28;20037;-63
2022/03/14 11:02:08;;;;;;;10.20;2.22;;;;;;;;;;5033884;28;20029;-63
2022/03/14 11:04:45;;;;;;;12.93;2.65;;;;;;;;;;5034659;28;20362;-63
2022/03/14 11:07:12;;;;;;;8.93;2.40;;;;;;;;;;5034761;28;20036;-63
2022/03/14 11:09:41;;;;;;;8.82;1.95;;;;;;;;;;5034131;28;20029;-63
2022/03/14 11:12:09;;;;;;;7.45;3.15;;;;;;;;;;5033966;28;20017;-63
2022/03/14 11:14:38;;;;;;;5.78;2.17;;;;;;;;;;5034044;28;20017;-63
2022/03/14 11:17:14;;;;;;;9.38;2.67;;;;;;;;;;5034423;28;20104;-63
2022/03/14 11:19:41;;;;;;;12.10;2.13;;;;;;;;;;5027537;28;20383;-63
2022/03/14 11:22:12;;;;;;;21.92;3.38;;;;;;;;;;5034294;28;20037;-63
2022/03/14 11:24:46;;;;;;;11.27;2.38;;;;;;;;;;5030760;28;20045;-62
2022/03/14 11:27:21;;;;;;;9.88;2.35;;;;;;;;;;5030797;28;20029;-63
2022/03/14 11:29:48;;;;;;;10.68;2.38;;;;;;;;;;5033183;28;20036;-63
2022/03/14 11:32:15;;;;;;;6.78;2.65;;;;;;;;;;5033089;28;20033;-63
2022/03/14 11:34:41;;;;;;;7.57;2.20;;;;;;;;;;5031321;28;20032;-62
2022/03/14 11:37:07;;;;;;;8.88;2.35;;;;;;;;;;5033545;28;20052;-62
2022/03/14 11:39:34;;;;;;;6.40;2.03;;;;;;;;;;5033090;28;20136;-62
2022/03/14 11:42:00;;;;;;;8.00;2.10;;;;;;;;;;5032563;28;20025;-62
2022/03/14 11:44:27;;;;;;;11.35;2.50;;;;;;;;;;5033053;28;20445;-62
2022/03/14 11:46:54;;;;;;;13.60;2.20;;;;;;;;;;5030719;28;20040;-62
2022/03/14 11:49:20;;;;;;;12.20;2.20;;;;;;;;;;5015392;28;20499;-62
2022/03/14 11:51:48;;;;;;;9.13;2.38;;;;;;;;;;5033471;28;20030;-62
2022/03/14 11:54:15;;;;;;;14.98;2.95;;;;;;;;;;5032574;28;20041;-62
2022/03/14 11:56:54;;;;;;;14.20;2.67;;;;;;;;;;5031731;28;20052;-62
2022/03/14 11:59:31;;;;;;;17.70;2.78;;;;;;;;;;5030910;28;20172;-62
2022/03/14 12:02:00;;;;;;;19.00;2.80;;;;;;;;;;5027730;28;20044;-63
2022/03/14 12:04:37;;;;;;;17.45;2.83;;;;;;;;;;5031295;28;20424;-62
2022/03/14 12:07:05;;;;;;;21.30;3.13;;;;;;;;;;5030947;28;20374;-63
2022/03/14 12:09:33;;;;;;;10.70;2.45;;;;;;;;;;5031927;28;20029;-62
2022/03/14 12:12:19;;;;;;;9.45;2.20;;;;;;;;;;5023892;28;20036;-63
2022/03/14 12:14:47;;;;;;;10.30;2.75;;;;;;;;;;5031018;28;20040;-63
2022/03/14 12:17:13;;;;;;;10.15;2.53;;;;;;;;;;5030945;28;20501;-63
2022/03/14 12:19:44;;;;;;;12.45;2.20;;;;;;;;;;5032124;28;20143;-63
2022/03/14 12:22:16;;;;;;;11.70;2.45;;;;;;;;;;5032393;28;20068;-63
2022/03/14 12:24:44;;;;;;;11.93;2.60;;;;;;;;;;5029044;28;20069;-63
2022/03/14 12:27:22;;;;;;;7.53;2.55;;;;;;;;;;5026885;28;20022;-63
2022/03/14 12:29:49;;;;;;;7.05;2.28;;;;;;;;;;5031344;28;20021;-64
2022/03/14 12:32:34;;;;;;;14.82;2.70;;;;;;;;;;5032220;28;20033;-63
2022/03/14 12:35:09;;;;;;;15.48;2.88;;;;;;;;;;5032182;28;20025;-63
2022/03/14 12:37:35;;;;;;;10.23;2.80;;;;;;;;;;5032169;28;20026;-63
2022/03/14 12:40:03;;;;;;;9.70;2.67;;;;;;;;;;5029593;28;20108;-63
2022/03/14 12:42:37;;;;;;;6.38;1.92;;;;;;;;;;5031959;28;20076;-63
2022/03/14 12:45:24;;;;;;;14.82;2.38;;;;;;;;;;5028764;28;20061;-63
2022/03/14 12:47:57;;;;;;;11.35;3.17;;;;;;;;;;5027124;28;20033;-63
2022/03/14 12:50:43;;;;;;;9.90;3.33;;;;;;;;;;5031790;28;20128;-63
2022/03/14 12:53:10;;;;;;;14.20;2.50;;;;;;;;;;5030962;28;20417;-63
2022/03/14 12:55:42;;;;;;;6.25;2.47;;;;;;;;;;5031514;28;20018;-64
2022/03/14 12:58:09;;;;;;;10.63;2.88;;;;;;;;;;5030986;28;20239;-63
2022/03/14 13:00:38;;;;;;;11.45;2.20;;;;;;;;;;5031812;28;20032;-63
2022/03/14 13:03:06;;;;;;;15.85;2.95;;;;;;;;;;5031613;28;20116;-63
2022/03/14 13:05:32;;;;;;;14.68;2.80;;;;;;;;;;5031193;28;20025;-63
2022/03/14 13:08:03;;;;;;;11.50;2.78;;;;;;;;;;5031275;28;20037;-63
2022/03/14 13:10:39;;;;;;;15.57;2.45;;;;;;;;;;5031207;28;20037;-63
2022/03/14 13:13:08;;;;;;;7.63;2.50;;;;;;;;;;5031246;28;20412;-63
2022/03/14 13:15:36;;;;;;;14.27;2.65;;;;;;;;;;5031184;28;20026;-63
2022/03/14 13:18:15;;;;;;;15.63;3.00;;;;;;;;;;5031755;28;20064;-63
2022/03/14 13:20:41;;;;;;;10.48;2.85;;;;;;;;;;5024549;28;20026;-63
2022/03/14 13:23:15;;;;;;;11.05;2.60;;;;;;;;;;5031142;28;20021;-63
2022/03/14 13:25:46;;;;;;;12.68;2.70;;;;;;;;;;5030620;28;20033;-63
2022/03/14 13:28:13;;;;;;;16.00;2.55;;;;;;;;;;5030191;28;20044;-63
2022/03/14 13:30:40;;;;;;;9.52;2.30;;;;;;;;;;5031563;28;20072;-63
2022/03/14 13:33:23;;;;;;;13.65;2.85;;;;;;;;;;5031579;28;20037;-63
2022/03/14 13:35:50;;;;;;;8.75;2.70;;;;;;;;;;5030556;28;20025;-63
2022/03/14 13:38:28;;;;;;;13.90;3.15;;;;;;;;;;5031529;28;20026;-63
2022/03/14 13:40:55;;;;;;;17.15;4.00;;;;;;;;;;5027183;28;20025;-63
2022/03/14 13:43:22;;;;;;;10.77;2.97;;;;;;;;;;5030938;28;20079;-64
2022/03/14 13:45:49;;;;;;;11.63;3.10;;;;;;;;;;5031410;28;20033;-63
2022/03/14 13:48:24;;;;;;;10.40;3.95;;;;;;;;;;5031209;28;20014;-63
2022/03/14 13:50:50;;;;;;;17.27;4.28;;;;;;;;;;5024949;28;20029;-63
2022/03/14 13:53:23;;;;;;;13.52;3.90;;;;;;;;;;5030080;28;20124;-63
2022/03/14 13:55:53;;;;;;;10.43;3.10;;;;;;;;;;5031357;28;20026;-63
2022/03/14 13:58:26;;;;;;;13.73;3.13;;;;;;;;;;5029726;28;20512;-63
2022/03/14 14:00:53;;;;;;;16.48;3.67;;;;;;;;;;5020301;28;20370;-63
2022/03/14 14:03:22;;;;;;;14.82;3.70;;;;;;;;;;5026381;28;20029;-63
2022/03/14 14:05:51;;;;;;;17.67;3.85;;;;;;;;;;5030448;28;20033;-63
2022/03/14 14:08:36;;;;;;;12.00;3.72;;;;;;;;;;5030550;28;20135;-63
2022/03/14 14:11:02;;;;;;;13.73;3.72;;;;;;;;;;5027387;28;20018;-63
2022/03/14 14:13:47;;;;;;;15.10;3.40;;;;;;;;;;5029216;28;20420;-63
2022/03/14 14:16:22;;;;;;;11.88;3.63;;;;;;;;;;5030373;28;20030;-63
2022/03/14 14:19:06;;;;;;;14.75;3.67;;;;;;;;;;5029944;28;20045;-63
2022/03/14 14:21:33;;;;;;;13.93;3.33;;;;;;;;;;5030022;28;20080;-63
2022/03/14 14:23:59;;;;;;;18.30;3.80;;;;;;;;;;5028495;28;20575;-63
2022/03/14 14:26:31;;;;;;;15.73;4.32;;;;;;;;;;5029884;28;20061;-63
2022/03/14 14:28:58;;;;;;;17.77;4.43;;;;;;;;;;5030885;28;20708;-63
2022/03/14 14:31:24;;;;;;;12.88;4.53;;;;;;;;;;5030890;28;20047;-63
2022/03/14 14:33:50;;;;;;;16.92;5.53;;;;;;;;;;5023883;28;20529;-63
2022/03/14 14:36:18;;;;;;;12.32;4.30;;;;;;;;;;5030968;28;20036;-63
2022/03/14 14:38:44;;;;;;;18.27;5.32;;;;;;;;;;5027270;28;20370;-64